sensor_id;sensor_type;location;lat;lon;timestamp;pressure;altitude;pressure_sealevel;temperature;humidity
53940;BME280;39850;43.324;21.916;2023-05-03T00:04:16;994.0;;;16.0;41.0
53940;BME280;39850;43.324;21.916;2023-05-03T00:08:52;994.0;;;16.0;41.0
53940;BME280;39850;43.324;21.916;2023-05-03T00:13:29;994.0;;;16.0;41.0
53940;BME280;39850;43.324;21.916;2023-05-03T00:18:06;994.0;;;16.0;41.0
53940;BME280;39850;43.324;21.916;2023-05-03T00:22:43;994.0;;;16.4;40.0
53940;BME280;39850;43.324;21.916;2023-05-03T00:27:20;994.0;;;16.4;40.0
53940;BME280;39850;43.324;21.916;2023-05-03T01:04:26;994.0;;;14.4;55.0
53940;BME280;39850;43.324;21.916;2023-05-03T01:09:37;994.0;;;14.4;55.0
53940;BME280;39850;43.324;21.916;2023-05-03T01:15:12;994.0;;;14.0;58.0
53940;BME280;39850;43.324;21.916;2023-05-03T01:20:20;994.0;;;14.0;58.0
53940;BME280;39850;43.324;21.916;2023-05-03T01:25:09;994.0;;;13.7;60.0
53940;BME280;39850;43.324;21.916;2023-05-03T01:29:48;994.0;;;13.7;60.0
53940;BME280;39850;43.324;21.916;2023-05-03T01:34:54;994.0;;;13.7;60.0
53940;BME280;39850;43.324;21.916;2023-05-03T01:40:03;994.0;;;13.7;60.0
53940;BME280;39850;43.324;21.916;2023-05-03T01:44:51;994.0;;;13.7;60.0
53940;BME280;39850;43.324;21.916;2023-05-03T01:49:31;994.0;;;13.7;60.0
53940;BME280;39850;43.324;21.916;2023-05-03T02:21:46;993.0;;;13.4;59.0
53940;BME280;39850;43.324;21.916;2023-05-03T02:26:23;993.0;;;13.4;59.0
53940;BME280;39850;43.324;21.916;2023-05-03T02:31:00;993.0;;;13.4;59.0
53940;BME280;39850;43.324;21.916;2023-05-03T02:35:36;993.0;;;13.4;59.0
53940;BME280;39850;43.324;21.916;2023-05-03T02:40:13;993.0;;;13.4;59.0
53940;BME280;39850;43.324;21.916;2023-05-03T02:44:50;993.0;;;13.4;59.0
53940;BME280;39850;43.324;21.916;2023-05-03T02:49:26;993.0;;;13.4;59.0
53940;BME280;39850;43.324;21.916;2023-05-03T03:44:52;993.0;;;13.1;46.0
53940;BME280;39850;43.324;21.916;2023-05-03T03:49:28;993.0;;;13.1;46.0
53940;BME280;39850;43.324;21.916;2023-05-03T03:54:05;993.0;;;12.8;47.0
53940;BME280;39850;43.324;21.916;2023-05-03T03:58:43;993.0;;;12.8;47.0
53940;BME280;39850;43.324;21.916;2023-05-03T04:03:20;993.0;;;12.7;47.0
53940;BME280;39850;43.324;21.916;2023-05-03T04:07:57;993.0;;;12.7;47.0
53940;BME280;39850;43.324;21.916;2023-05-03T04:12:34;993.0;;;12.6;48.0
53940;BME280;39850;43.324;21.916;2023-05-03T04:17:11;993.0;;;12.6;48.0
53940;BME280;39850;43.324;21.916;2023-05-03T04:21:48;993.0;;;12.7;48.0
53940;BME280;39850;43.324;21.916;2023-05-03T04:26:24;993.0;;;12.7;48.0
53940;BME280;39850;43.324;21.916;2023-05-03T04:31:01;993.0;;;12.7;48.0
53940;BME280;39850;43.324;21.916;2023-05-03T05:03:19;994.0;;;12.7;48.0
53940;BME280;39850;43.324;21.916;2023-05-03T05:07:55;994.0;;;12.7;48.0
53940;BME280;39850;43.324;21.916;2023-05-03T05:12:32;994.0;;;12.6;48.0
53940;BME280;39850;43.324;21.916;2023-05-03T05:17:09;994.0;;;12.6;48.0
53940;BME280;39850;43.324;21.916;2023-05-03T05:21:45;994.0;;;12.6;48.0
53940;BME280;39850;43.324;21.916;2023-05-03T05:26:22;994.0;;;12.6;48.0
53940;BME280;39850;43.324;21.916;2023-05-03T05:30:59;994.0;;;12.6;48.0
53940;BME280;39850;43.324;21.916;2023-05-03T05:35:36;994.0;;;12.6;48.0
53940;BME280;39850;43.324;21.916;2023-05-03T05:40:14;994.0;;;12.6;48.0
53940;BME280;39850;43.324;21.916;2023-05-03T05:44:50;994.0;;;12.6;48.0
53940;BME280;39850;43.324;21.916;2023-05-03T05:49:28;994.0;;;12.6;48.0
53940;BME280;39850;43.324;21.916;2023-05-03T06:21:46;994.0;;;12.7;49.0
53940;BME280;39850;43.324;21.916;2023-05-03T06:26:23;994.0;;;12.7;49.0
53940;BME280;39850;43.324;21.916;2023-05-03T06:31:00;994.0;;;12.7;49.0
53940;BME280;39850;43.324;21.916;2023-05-03T06:35:37;994.0;;;12.6;49.0
53940;BME280;39850;43.324;21.916;2023-05-03T06:40:14;994.0;;;12.6;49.0
53940;BME280;39850;43.324;21.916;2023-05-03T06:44:51;994.0;;;12.6;49.0
53940;BME280;39850;43.324;21.916;2023-05-03T06:49:28;994.0;;;12.6;49.0
53940;BME280;39850;43.324;21.916;2023-05-03T06:54:05;994.0;;;12.6;49.0
53940;BME280;39850;43.324;21.916;2023-05-03T06:58:42;994.0;;;12.6;49.0
53940;BME280;39850;43.324;21.916;2023-05-03T07:03:19;994.0;;;12.6;50.0
53940;BME280;39850;43.324;21.916;2023-05-03T07:07:55;994.0;;;12.6;50.0
53940;BME280;39850;43.324;21.916;2023-05-03T07:44:52;994.0;;;12.6;50.0
53940;BME280;39850;43.324;21.916;2023-05-03T07:49:29;994.0;;;12.6;50.0
53940;BME280;39850;43.324;21.916;2023-05-03T07:54:06;994.0;;;12.6;51.0
53940;BME280;39850;43.324;21.916;2023-05-03T07:58:42;994.0;;;12.6;51.0
53940;BME280;39850;43.324;21.916;2023-05-03T08:03:19;994.0;;;12.6;51.0
53940;BME280;39850;43.324;21.916;2023-05-03T08:07:55;994.0;;;12.6;51.0
53940;BME280;39850;43.324;21.916;2023-05-03T08:12:32;994.0;;;12.7;51.0
53940;BME280;39850;43.324;21.916;2023-05-03T08:17:09;994.0;;;12.7;51.0
53940;BME280;39850;43.324;21.916;2023-05-03T08:21:46;994.0;;;12.7;51.0
53940;BME280;39850;43.324;21.916;2023-05-03T09:03:24;995.0;;;13.7;51.0
53940;BME280;39850;43.324;21.916;2023-05-03T09:08:09;995.0;;;13.7;51.0
53940;BME280;39850;43.324;21.916;2023-05-03T09:12:46;995.0;;;13.6;52.0
53940;BME280;39850;43.324;21.916;2023-05-03T09:17:23;995.0;;;13.6;52.0
53940;BME280;39850;43.324;21.916;2023-05-03T09:22:07;995.0;;;13.5;52.0
53940;BME280;39850;43.324;21.916;2023-05-03T09:26:50;995.0;;;13.5;52.0
53940;BME280;39850;43.324;21.916;2023-05-03T09:31:35;995.0;;;13.5;52.0
53940;BME280;39850;43.324;21.916;2023-05-03T09:36:12;995.0;;;13.5;52.0
53940;BME280;39850;43.324;21.916;2023-05-03T09:40:49;995.0;;;13.5;52.0
53940;BME280;39850;43.324;21.916;2023-05-03T09:45:26;995.0;;;13.5;52.0
53940;BME280;39850;43.324;21.916;2023-05-03T09:50:08;995.0;;;13.5;52.0
53940;BME280;39850;43.324;21.916;2023-05-03T10:23:13;994.0;;;15.3;48.0
53940;BME280;39850;43.324;21.916;2023-05-03T10:27:51;994.0;;;15.3;48.0
53940;BME280;39850;43.324;21.916;2023-05-03T10:32:36;994.0;;;15.4;48.0
53940;BME280;39850;43.324;21.916;2023-05-03T10:37:13;994.0;;;15.4;48.0
53940;BME280;39850;43.324;21.916;2023-05-03T10:42:05;994.0;;;15.4;48.0
53940;BME280;39850;43.324;21.916;2023-05-03T10:46:43;994.0;;;15.5;47.0
53940;BME280;39850;43.324;21.916;2023-05-03T10:51:35;994.0;;;15.5;47.0
53940;BME280;39850;43.324;21.916;2023-05-03T10:56:14;994.0;;;16.0;47.0
53940;BME280;39850;43.324;21.916;2023-05-03T11:00:51;994.0;;;16.0;47.0
53940;BME280;39850;43.324;21.916;2023-05-03T11:05:31;994.0;;;16.4;47.0
53940;BME280;39850;43.324;21.916;2023-05-03T11:10:19;994.0;;;16.4;47.0
53940;BME280;39850;43.324;21.916;2023-05-03T11:42:57;993.0;;;18.2;46.0
53940;BME280;39850;43.324;21.916;2023-05-03T11:47:34;993.0;;;18.2;46.0
53940;BME280;39850;43.324;21.916;2023-05-03T11:52:11;993.0;;;18.2;46.0
53940;BME280;39850;43.324;21.916;2023-05-03T11:56:53;993.0;;;18.2;46.0
53940;BME280;39850;43.324;21.916;2023-05-03T12:01:32;993.0;;;18.2;46.0
53940;BME280;39850;43.324;21.916;2023-05-03T12:06:12;993.0;;;18.2;46.0
53940;BME280;39850;43.324;21.916;2023-05-03T12:10:50;993.0;;;18.2;46.0
53940;BME280;39850;43.324;21.916;2023-05-03T12:15:35;993.0;;;18.1;46.0
53940;BME280;39850;43.324;21.916;2023-05-03T12:20:22;993.0;;;18.1;46.0
53940;BME280;39850;43.324;21.916;2023-05-03T12:25:00;993.0;;;18.1;46.0
53940;BME280;39850;43.324;21.916;2023-05-03T12:29:37;993.0;;;18.1;46.0
53940;BME280;39850;43.324;21.916;2023-05-03T13:06:32;992.0;;;18.1;48.0
53940;BME280;39850;43.324;21.916;2023-05-03T13:11:08;992.0;;;18.1;48.0
53940;BME280;39850;43.324;21.916;2023-05-03T13:15:45;992.0;;;18.1;47.0
53940;BME280;39850;43.324;21.916;2023-05-03T13:20:22;992.0;;;18.1;47.0
53940;BME280;39850;43.324;21.916;2023-05-03T13:24:59;992.0;;;18.1;48.0
53940;BME280;39850;43.324;21.916;2023-05-03T13:29:35;992.0;;;18.1;48.0
53940;BME280;39850;43.324;21.916;2023-05-03T13:34:12;992.0;;;18.2;48.0
53940;BME280;39850;43.324;21.916;2023-05-03T13:38:50;992.0;;;18.2;48.0
53940;BME280;39850;43.324;21.916;2023-05-03T13:43:27;992.0;;;18.2;48.0
53940;BME280;39850;43.324;21.916;2023-05-03T13:48:05;992.0;;;18.2;48.0
53940;BME280;39850;43.324;21.916;2023-05-03T13:52:43;992.0;;;18.2;48.0
53940;BME280;39850;43.324;21.916;2023-05-03T14:25:09;991.0;;;17.1;51.0
53940;BME280;39850;43.324;21.916;2023-05-03T14:29:46;991.0;;;17.1;51.0
53940;BME280;39850;43.324;21.916;2023-05-03T14:34:23;991.0;;;17.1;51.0
53940;BME280;39850;43.324;21.916;2023-05-03T14:39:00;991.0;;;17.1;51.0
53940;BME280;39850;43.324;21.916;2023-05-03T14:43:38;991.0;;;17.1;51.0
53940;BME280;39850;43.324;21.916;2023-05-03T14:48:15;991.0;;;17.1;51.0
53940;BME280;39850;43.324;21.916;2023-05-03T14:52:52;991.0;;;17.1;51.0
53940;BME280;39850;43.324;21.916;2023-05-03T14:57:29;991.0;;;17.1;51.0
53940;BME280;39850;43.324;21.916;2023-05-03T15:02:06;991.0;;;17.1;51.0
53940;BME280;39850;43.324;21.916;2023-05-03T15:06:43;991.0;;;17.1;52.0
53940;BME280;39850;43.324;21.916;2023-05-03T15:11:20;991.0;;;17.1;52.0
53940;BME280;39850;43.324;21.916;2023-05-03T15:43:36;993.0;;;16.2;67.0
53940;BME280;39850;43.324;21.916;2023-05-03T15:48:13;993.0;;;16.2;67.0
53940;BME280;39850;43.324;21.916;2023-05-03T15:52:49;993.0;;;16.2;67.0
53940;BME280;39850;43.324;21.916;2023-05-03T15:57:26;993.0;;;16.3;69.0
53940;BME280;39850;43.324;21.916;2023-05-03T16:02:02;993.0;;;16.3;69.0
53940;BME280;39850;43.324;21.916;2023-05-03T16:06:39;993.0;;;16.4;72.0
53940;BME280;39850;43.324;21.916;2023-05-03T16:11:15;993.0;;;16.4;72.0
53940;BME280;39850;43.324;21.916;2023-05-03T16:15:53;993.0;;;16.4;72.0
53940;BME280;39850;43.324;21.916;2023-05-03T16:20:30;993.0;;;16.4;72.0
53940;BME280;39850;43.324;21.916;2023-05-03T16:25:09;993.0;;;16.4;73.0
53940;BME280;39850;43.324;21.916;2023-05-03T16:29:45;993.0;;;16.4;73.0
53940;BME280;39850;43.324;21.916;2023-05-03T17:06:38;994.0;;;15.3;79.0
53940;BME280;39850;43.324;21.916;2023-05-03T17:11:15;994.0;;;15.3;79.0
53940;BME280;39850;43.324;21.916;2023-05-03T17:15:51;994.0;;;15.4;80.0
53940;BME280;39850;43.324;21.916;2023-05-03T17:20:28;994.0;;;15.4;80.0
53940;BME280;39850;43.324;21.916;2023-05-03T17:25:09;994.0;;;15.4;81.0
53940;BME280;39850;43.324;21.916;2023-05-03T17:29:46;994.0;;;15.4;81.0
53940;BME280;39850;43.324;21.916;2023-05-03T17:34:23;994.0;;;15.4;82.0
53940;BME280;39850;43.324;21.916;2023-05-03T17:39:00;994.0;;;15.4;82.0
53940;BME280;39850;43.324;21.916;2023-05-03T17:43:38;994.0;;;15.4;82.0
53940;BME280;39850;43.324;21.916;2023-05-03T17:48:15;994.0;;;15.5;82.0
53940;BME280;39850;43.324;21.916;2023-05-03T17:52:53;994.0;;;15.5;82.0
53940;BME280;39850;43.324;21.916;2023-05-03T18:25:11;994.0;;;14.4;85.0
53940;BME280;39850;43.324;21.916;2023-05-03T18:29:47;994.0;;;14.4;85.0
53940;BME280;39850;43.324;21.916;2023-05-03T18:34:24;994.0;;;14.4;85.0
53940;BME280;39850;43.324;21.916;2023-05-03T18:39:01;994.0;;;14.4;85.0
53940;BME280;39850;43.324;21.916;2023-05-03T18:43:39;994.0;;;14.4;85.0
53940;BME280;39850;43.324;21.916;2023-05-03T18:48:16;994.0;;;14.4;85.0
53940;BME280;39850;43.324;21.916;2023-05-03T18:52:52;994.0;;;14.4;85.0
53940;BME280;39850;43.324;21.916;2023-05-03T18:57:29;994.0;;;14.5;85.0
53940;BME280;39850;43.324;21.916;2023-05-03T19:02:06;994.0;;;14.5;85.0
53940;BME280;39850;43.324;21.916;2023-05-03T19:06:43;994.0;;;14.5;85.0
53940;BME280;39850;43.324;21.916;2023-05-03T19:11:20;994.0;;;14.5;85.0
53940;BME280;39850;43.324;21.916;2023-05-03T19:48:13;995.0;;;14.6;86.0
53940;BME280;39850;43.324;21.916;2023-05-03T19:52:51;995.0;;;14.6;86.0
53940;BME280;39850;43.324;21.916;2023-05-03T19:57:28;995.0;;;14.6;85.0
53940;BME280;39850;43.324;21.916;2023-05-03T20:02:05;995.0;;;14.6;85.0
53940;BME280;39850;43.324;21.916;2023-05-03T20:06:42;995.0;;;14.6;86.0
53940;BME280;39850;43.324;21.916;2023-05-03T20:11:19;995.0;;;14.6;86.0
53940;BME280;39850;43.324;21.916;2023-05-03T20:15:56;994.0;;;14.6;85.0
53940;BME280;39850;43.324;21.916;2023-05-03T20:20:33;994.0;;;14.6;85.0
53940;BME280;39850;43.324;21.916;2023-05-03T20:25:10;994.0;;;14.6;86.0
53940;BME280;39850;43.324;21.916;2023-05-03T20:29:46;994.0;;;14.6;86.0
53940;BME280;39850;43.324;21.916;2023-05-03T21:06:39;994.0;;;13.7;86.0
53940;BME280;39850;43.324;21.916;2023-05-03T21:11:16;994.0;;;13.7;86.0
53940;BME280;39850;43.324;21.916;2023-05-03T21:15:54;994.0;;;13.2;86.0
53940;BME280;39850;43.324;21.916;2023-05-03T21:20:31;994.0;;;13.2;86.0
53940;BME280;39850;43.324;21.916;2023-05-03T21:25:09;994.0;;;12.7;86.0
53940;BME280;39850;43.324;21.916;2023-05-03T21:29:46;994.0;;;12.7;86.0
53940;BME280;39850;43.324;21.916;2023-05-03T21:34:23;994.0;;;12.7;86.0
53940;BME280;39850;43.324;21.916;2023-05-03T21:38:59;994.0;;;12.6;86.0
53940;BME280;39850;43.324;21.916;2023-05-03T21:43:36;994.0;;;12.6;86.0
53940;BME280;39850;43.324;21.916;2023-05-03T21:48:13;994.0;;;12.6;86.0
53940;BME280;39850;43.324;21.916;2023-05-03T21:52:50;994.0;;;12.6;86.0
53940;BME280;39850;43.324;21.916;2023-05-03T22:25:20;994.0;;;12.6;86.0
53940;BME280;39850;43.324;21.916;2023-05-03T22:29:57;994.0;;;12.6;86.0
53940;BME280;39850;43.324;21.916;2023-05-03T22:34:33;994.0;;;12.6;86.0
53940;BME280;39850;43.324;21.916;2023-05-03T22:39:10;994.0;;;12.6;86.0
53940;BME280;39850;43.324;21.916;2023-05-03T22:43:47;994.0;;;12.6;86.0
53940;BME280;39850;43.324;21.916;2023-05-03T22:48:24;994.0;;;12.6;86.0
53940;BME280;39850;43.324;21.916;2023-05-03T22:53:01;994.0;;;12.6;86.0
53940;BME280;39850;43.324;21.916;2023-05-03T22:57:38;994.0;;;12.6;86.0
53940;BME280;39850;43.324;21.916;2023-05-03T23:02:15;994.0;;;12.6;86.0
53940;BME280;39850;43.324;21.916;2023-05-03T23:06:53;994.0;;;12.7;86.0
53940;BME280;39850;43.324;21.916;2023-05-03T23:11:30;994.0;;;12.7;86.0
53940;BME280;39850;43.324;21.916;2023-05-03T23:48:25;994.0;;;12.7;84.0
53940;BME280;39850;43.324;21.916;2023-05-03T23:53:01;994.0;;;12.7;84.0
53940;BME280;39850;43.324;21.916;2023-05-03T23:57:38;994.0;;;12.6;84.0
